sensor_id;sensor_type;location;lat;lon;timestamp;P1;durP1;ratioP1;P2;durP2;ratioP2
26080;SDS011;13991;51.174;4.438;2024-02-21T00:01:01;31.10;;;6.00;;
26080;SDS011;13991;51.174;4.438;2024-02-21T00:03:27;37.43;;;6.93;;
26080;SDS011;13991;51.174;4.438;2024-02-21T00:05:52;34.40;;;6.93;;
26080;SDS011;13991;51.174;4.438;2024-02-21T00:08:18;43.30;;;7.27;;
26080;SDS011;13991;51.174;4.438;2024-02-21T00:10:44;33.20;;;6.07;;
26080;SDS011;13991;51.174;4.438;2024-02-21T00:13:10;33.17;;;6.67;;
26080;SDS011;13991;51.174;4.438;2024-02-21T00:15:36;34.33;;;6.23;;
26080;SDS011;13991;51.174;4.438;2024-02-21T00:18:02;29.17;;;6.67;;
26080;SDS011;13991;51.174;4.438;2024-02-21T00:20:28;37.27;;;6.67;;
26080;SDS011;13991;51.174;4.438;2024-02-21T00:22:55;38.17;;;6.67;;
26080;SDS011;13991;51.174;4.438;2024-02-21T00:25:20;34.57;;;6.67;;
26080;SDS011;13991;51.174;4.438;2024-02-21T00:27:46;30.30;;;6.23;;
26080;SDS011;13991;51.174;4.438;2024-02-21T00:30:12;45.87;;;6.47;;
26080;SDS011;13991;51.174;4.438;2024-02-21T00:32:38;36.40;;;7.13;;
26080;SDS011;13991;51.174;4.438;2024-02-21T00:35:04;23.03;;;5.70;;
26080;SDS011;13991;51.174;4.438;2024-02-21T00:37:30;40.27;;;6.43;;
26080;SDS011;13991;51.174;4.438;2024-02-21T00:39:57;37.40;;;7.17;;
26080;SDS011;13991;51.174;4.438;2024-02-21T00:42:23;29.60;;;5.40;;
26080;SDS011;13991;51.174;4.438;2024-02-21T00:44:49;26.63;;;6.00;;
26080;SDS011;13991;51.174;4.438;2024-02-21T00:47:15;27.83;;;5.67;;
26080;SDS011;13991;51.174;4.438;2024-02-21T00:49:41;19.67;;;5.63;;
26080;SDS011;13991;51.174;4.438;2024-02-21T00:52:07;35.50;;;6.77;;
26080;SDS011;13991;51.174;4.438;2024-02-21T00:54:33;31.77;;;6.43;;
26080;SDS011;13991;51.174;4.438;2024-02-21T00:56:58;38.07;;;6.20;;
26080;SDS011;13991;51.174;4.438;2024-02-21T00:59:24;25.10;;;4.67;;
26080;SDS011;13991;51.174;4.438;2024-02-21T01:01:50;29.90;;;5.93;;
26080;SDS011;13991;51.174;4.438;2024-02-21T01:04:16;31.70;;;5.93;;
26080;SDS011;13991;51.174;4.438;2024-02-21T01:06:42;25.23;;;7.27;;
26080;SDS011;13991;51.174;4.438;2024-02-21T01:09:09;27.67;;;6.10;;
26080;SDS011;13991;51.174;4.438;2024-02-21T01:11:36;23.27;;;5.53;;
26080;SDS011;13991;51.174;4.438;2024-02-21T01:14:01;14.17;;;5.23;;
26080;SDS011;13991;51.174;4.438;2024-02-21T01:16:27;37.27;;;6.23;;
26080;SDS011;13991;51.174;4.438;2024-02-21T01:18:54;22.03;;;6.30;;
26080;SDS011;13991;51.174;4.438;2024-02-21T01:21:19;27.03;;;5.50;;
26080;SDS011;13991;51.174;4.438;2024-02-21T01:23:46;27.93;;;6.13;;
26080;SDS011;13991;51.174;4.438;2024-02-21T01:26:12;32.10;;;5.70;;
26080;SDS011;13991;51.174;4.438;2024-02-21T01:28:40;28.00;;;6.43;;
26080;SDS011;13991;51.174;4.438;2024-02-21T01:31:06;36.53;;;5.50;;
26080;SDS011;13991;51.174;4.438;2024-02-21T01:33:32;44.73;;;7.17;;
26080;SDS011;13991;51.174;4.438;2024-02-21T01:36:04;44.27;;;7.40;;
26080;SDS011;13991;51.174;4.438;2024-02-21T01:38:31;24.27;;;6.77;;
26080;SDS011;13991;51.174;4.438;2024-02-21T01:40:59;29.73;;;6.63;;
26080;SDS011;13991;51.174;4.438;2024-02-21T01:43:25;34.57;;;6.97;;
26080;SDS011;13991;51.174;4.438;2024-02-21T01:45:55;18.50;;;5.53;;
26080;SDS011;13991;51.174;4.438;2024-02-21T01:48:22;25.77;;;6.00;;
26080;SDS011;13991;51.174;4.438;2024-02-21T01:50:49;34.90;;;8.80;;
26080;SDS011;13991;51.174;4.438;2024-02-21T01:53:20;34.97;;;7.20;;
26080;SDS011;13991;51.174;4.438;2024-02-21T01:55:47;20.00;;;6.50;;
26080;SDS011;13991;51.174;4.438;2024-02-21T01:58:14;28.07;;;6.00;;
26080;SDS011;13991;51.174;4.438;2024-02-21T02:00:45;29.07;;;7.23;;
26080;SDS011;13991;51.174;4.438;2024-02-21T02:03:12;52.50;;;8.40;;
26080;SDS011;13991;51.174;4.438;2024-02-21T02:05:47;49.77;;;7.93;;
26080;SDS011;13991;51.174;4.438;2024-02-21T02:08:15;32.13;;;8.03;;
26080;SDS011;13991;51.174;4.438;2024-02-21T02:10:42;31.47;;;6.40;;
26080;SDS011;13991;51.174;4.438;2024-02-21T02:13:09;36.50;;;7.73;;
26080;SDS011;13991;51.174;4.438;2024-02-21T02:15:42;43.27;;;7.83;;
26080;SDS011;13991;51.174;4.438;2024-02-21T02:18:09;26.73;;;7.20;;
26080;SDS011;13991;51.174;4.438;2024-02-21T02:20:35;36.57;;;8.00;;
26080;SDS011;13991;51.174;4.438;2024-02-21T02:23:11;32.77;;;8.30;;
26080;SDS011;13991;51.174;4.438;2024-02-21T02:25:56;35.57;;;7.87;;
26080;SDS011;13991;51.174;4.438;2024-02-21T02:28:22;39.63;;;8.00;;
26080;SDS011;13991;51.174;4.438;2024-02-21T02:30:48;40.23;;;7.53;;
26080;SDS011;13991;51.174;4.438;2024-02-21T02:33:14;39.03;;;7.87;;
26080;SDS011;13991;51.174;4.438;2024-02-21T02:35:42;28.57;;;8.07;;
26080;SDS011;13991;51.174;4.438;2024-02-21T02:38:08;40.10;;;8.57;;
26080;SDS011;13991;51.174;4.438;2024-02-21T02:40:35;37.60;;;8.40;;
26080;SDS011;13991;51.174;4.438;2024-02-21T02:43:01;33.27;;;8.10;;
26080;SDS011;13991;51.174;4.438;2024-02-21T02:45:28;43.23;;;8.80;;
26080;SDS011;13991;51.174;4.438;2024-02-21T02:47:54;40.17;;;9.47;;
26080;SDS011;13991;51.174;4.438;2024-02-21T02:50:21;47.13;;;9.47;;
26080;SDS011;13991;51.174;4.438;2024-02-21T02:52:48;40.03;;;10.17;;
26080;SDS011;13991;51.174;4.438;2024-02-21T02:55:13;40.90;;;10.40;;
26080;SDS011;13991;51.174;4.438;2024-02-21T02:57:39;39.00;;;8.77;;
26080;SDS011;13991;51.174;4.438;2024-02-21T03:00:07;43.17;;;9.53;;
26080;SDS011;13991;51.174;4.438;2024-02-21T03:02:34;33.50;;;9.03;;
26080;SDS011;13991;51.174;4.438;2024-02-21T03:05:00;37.30;;;9.27;;
26080;SDS011;13991;51.174;4.438;2024-02-21T03:07:36;28.60;;;9.33;;
26080;SDS011;13991;51.174;4.438;2024-02-21T03:10:02;37.57;;;8.97;;
26080;SDS011;13991;51.174;4.438;2024-02-21T03:12:28;44.37;;;9.63;;
26080;SDS011;13991;51.174;4.438;2024-02-21T03:14:54;44.50;;;9.60;;
26080;SDS011;13991;51.174;4.438;2024-02-21T03:17:20;31.63;;;10.23;;
26080;SDS011;13991;51.174;4.438;2024-02-21T03:19:46;34.27;;;8.50;;
26080;SDS011;13991;51.174;4.438;2024-02-21T03:22:13;40.57;;;8.07;;
26080;SDS011;13991;51.174;4.438;2024-02-21T03:24:39;37.80;;;8.17;;
26080;SDS011;13991;51.174;4.438;2024-02-21T03:27:05;39.33;;;8.93;;
26080;SDS011;13991;51.174;4.438;2024-02-21T03:29:31;32.23;;;9.37;;
26080;SDS011;13991;51.174;4.438;2024-02-21T03:31:57;24.90;;;8.90;;
26080;SDS011;13991;51.174;4.438;2024-02-21T03:34:23;34.53;;;8.47;;
26080;SDS011;13991;51.174;4.438;2024-02-21T03:36:48;23.03;;;7.50;;
26080;SDS011;13991;51.174;4.438;2024-02-21T03:39:14;30.97;;;9.00;;
26080;SDS011;13991;51.174;4.438;2024-02-21T03:41:40;40.37;;;8.53;;
26080;SDS011;13991;51.174;4.438;2024-02-21T03:44:06;32.13;;;8.33;;
26080;SDS011;13991;51.174;4.438;2024-02-21T03:46:31;33.43;;;8.53;;
26080;SDS011;13991;51.174;4.438;2024-02-21T03:48:58;24.80;;;7.90;;
26080;SDS011;13991;51.174;4.438;2024-02-21T03:51:25;33.90;;;8.03;;
26080;SDS011;13991;51.174;4.438;2024-02-21T03:53:51;31.53;;;7.87;;
26080;SDS011;13991;51.174;4.438;2024-02-21T03:56:17;31.93;;;8.17;;
26080;SDS011;13991;51.174;4.438;2024-02-21T03:58:44;38.13;;;7.97;;
26080;SDS011;13991;51.174;4.438;2024-02-21T04:01:10;35.40;;;8.60;;
26080;SDS011;13991;51.174;4.438;2024-02-21T04:03:37;41.03;;;9.00;;
26080;SDS011;13991;51.174;4.438;2024-02-21T04:06:03;30.80;;;8.13;;
26080;SDS011;13991;51.174;4.438;2024-02-21T04:08:29;39.13;;;8.30;;
26080;SDS011;13991;51.174;4.438;2024-02-21T04:10:55;26.90;;;7.67;;
26080;SDS011;13991;51.174;4.438;2024-02-21T04:13:20;28.97;;;8.03;;
26080;SDS011;13991;51.174;4.438;2024-02-21T04:15:47;38.23;;;9.07;;
26080;SDS011;13991;51.174;4.438;2024-02-21T04:18:13;24.50;;;7.80;;
26080;SDS011;13991;51.174;4.438;2024-02-21T04:20:42;30.20;;;8.03;;
26080;SDS011;13991;51.174;4.438;2024-02-21T04:23:07;34.53;;;8.50;;
26080;SDS011;13991;51.174;4.438;2024-02-21T04:25:33;26.47;;;7.93;;
26080;SDS011;13991;51.174;4.438;2024-02-21T04:27:59;25.77;;;7.67;;
26080;SDS011;13991;51.174;4.438;2024-02-21T04:30:25;38.23;;;9.57;;
26080;SDS011;13991;51.174;4.438;2024-02-21T04:32:51;34.70;;;8.43;;
26080;SDS011;13991;51.174;4.438;2024-02-21T04:35:18;38.40;;;7.93;;
26080;SDS011;13991;51.174;4.438;2024-02-21T04:37:43;35.13;;;8.30;;
26080;SDS011;13991;51.174;4.438;2024-02-21T04:40:09;31.87;;;8.40;;
26080;SDS011;13991;51.174;4.438;2024-02-21T04:42:36;34.00;;;7.80;;
26080;SDS011;13991;51.174;4.438;2024-02-21T04:45:02;23.73;;;6.70;;
26080;SDS011;13991;51.174;4.438;2024-02-21T04:47:28;28.57;;;7.93;;
26080;SDS011;13991;51.174;4.438;2024-02-21T04:49:54;29.13;;;6.70;;
26080;SDS011;13991;51.174;4.438;2024-02-21T04:52:20;39.20;;;9.77;;
26080;SDS011;13991;51.174;4.438;2024-02-21T04:54:46;33.20;;;9.10;;
26080;SDS011;13991;51.174;4.438;2024-02-21T04:57:12;25.77;;;8.13;;
26080;SDS011;13991;51.174;4.438;2024-02-21T04:59:41;34.87;;;8.50;;
26080;SDS011;13991;51.174;4.438;2024-02-21T05:02:12;29.73;;;9.03;;
26080;SDS011;13991;51.174;4.438;2024-02-21T05:04:38;36.47;;;8.70;;
26080;SDS011;13991;51.174;4.438;2024-02-21T05:07:06;31.40;;;8.93;;
26080;SDS011;13991;51.174;4.438;2024-02-21T05:09:33;35.87;;;9.60;;
26080;SDS011;13991;51.174;4.438;2024-02-21T05:11:58;40.43;;;12.33;;
26080;SDS011;13991;51.174;4.438;2024-02-21T05:14:27;35.67;;;9.80;;
26080;SDS011;13991;51.174;4.438;2024-02-21T05:16:53;34.23;;;9.63;;
26080;SDS011;13991;51.174;4.438;2024-02-21T05:19:19;32.97;;;9.10;;
26080;SDS011;13991;51.174;4.438;2024-02-21T05:21:45;33.27;;;8.67;;
26080;SDS011;13991;51.174;4.438;2024-02-21T05:24:10;28.47;;;9.23;;
26080;SDS011;13991;51.174;4.438;2024-02-21T05:26:36;31.37;;;9.30;;
26080;SDS011;13991;51.174;4.438;2024-02-21T05:29:03;33.50;;;9.03;;
26080;SDS011;13991;51.174;4.438;2024-02-21T05:34:16;28.13;;;8.43;;
26080;SDS011;13991;51.174;4.438;2024-02-21T05:36:43;44.17;;;9.97;;
26080;SDS011;13991;51.174;4.438;2024-02-21T05:39:10;52.40;;;11.20;;
26080;SDS011;13991;51.174;4.438;2024-02-21T05:41:36;43.20;;;10.73;;
26080;SDS011;13991;51.174;4.438;2024-02-21T05:44:03;40.63;;;10.20;;
26080;SDS011;13991;51.174;4.438;2024-02-21T05:46:31;42.47;;;10.17;;
26080;SDS011;13991;51.174;4.438;2024-02-21T05:48:57;29.67;;;9.83;;
26080;SDS011;13991;51.174;4.438;2024-02-21T05:51:22;34.07;;;10.70;;
26080;SDS011;13991;51.174;4.438;2024-02-21T05:53:48;45.07;;;10.70;;
26080;SDS011;13991;51.174;4.438;2024-02-21T05:56:14;44.33;;;10.27;;
26080;SDS011;13991;51.174;4.438;2024-02-21T05:58:42;33.47;;;10.67;;
26080;SDS011;13991;51.174;4.438;2024-02-21T06:01:07;28.03;;;10.27;;
26080;SDS011;13991;51.174;4.438;2024-02-21T06:03:33;37.63;;;10.50;;
26080;SDS011;13991;51.174;4.438;2024-02-21T06:06:01;36.80;;;10.83;;
26080;SDS011;13991;51.174;4.438;2024-02-21T06:08:27;33.00;;;11.03;;
26080;SDS011;13991;51.174;4.438;2024-02-21T06:10:52;49.17;;;11.27;;
26080;SDS011;13991;51.174;4.438;2024-02-21T06:13:26;34.37;;;9.73;;
26080;SDS011;13991;51.174;4.438;2024-02-21T06:15:52;33.83;;;10.73;;
26080;SDS011;13991;51.174;4.438;2024-02-21T06:18:18;37.63;;;10.10;;
26080;SDS011;13991;51.174;4.438;2024-02-21T06:20:45;41.70;;;10.13;;
26080;SDS011;13991;51.174;4.438;2024-02-21T06:23:11;31.03;;;10.37;;
26080;SDS011;13991;51.174;4.438;2024-02-21T06:25:38;42.83;;;10.17;;
26080;SDS011;13991;51.174;4.438;2024-02-21T06:28:04;24.97;;;9.40;;
26080;SDS011;13991;51.174;4.438;2024-02-21T06:30:31;32.27;;;10.33;;
26080;SDS011;13991;51.174;4.438;2024-02-21T06:32:56;43.50;;;9.67;;
26080;SDS011;13991;51.174;4.438;2024-02-21T06:35:22;40.27;;;9.43;;
26080;SDS011;13991;51.174;4.438;2024-02-21T06:37:51;33.30;;;9.23;;
26080;SDS011;13991;51.174;4.438;2024-02-21T06:40:21;27.30;;;9.33;;
26080;SDS011;13991;51.174;4.438;2024-02-21T06:42:49;28.57;;;9.23;;
26080;SDS011;13991;51.174;4.438;2024-02-21T06:45:15;34.13;;;9.43;;
26080;SDS011;13991;51.174;4.438;2024-02-21T06:47:41;32.00;;;10.47;;
26080;SDS011;13991;51.174;4.438;2024-02-21T06:50:08;27.00;;;8.63;;
26080;SDS011;13991;51.174;4.438;2024-02-21T06:52:36;35.80;;;9.73;;
26080;SDS011;13991;51.174;4.438;2024-02-21T06:55:06;31.93;;;8.20;;
26080;SDS011;13991;51.174;4.438;2024-02-21T06:57:35;26.53;;;9.33;;
26080;SDS011;13991;51.174;4.438;2024-02-21T07:00:01;31.77;;;9.93;;
26080;SDS011;13991;51.174;4.438;2024-02-21T07:02:27;38.53;;;8.90;;
26080;SDS011;13991;51.174;4.438;2024-02-21T07:04:53;30.93;;;9.63;;
26080;SDS011;13991;51.174;4.438;2024-02-21T07:07:20;37.40;;;10.03;;
26080;SDS011;13991;51.174;4.438;2024-02-21T07:09:46;28.13;;;8.30;;
26080;SDS011;13991;51.174;4.438;2024-02-21T07:12:13;27.27;;;7.87;;
26080;SDS011;13991;51.174;4.438;2024-02-21T07:14:41;29.07;;;8.70;;
26080;SDS011;13991;51.174;4.438;2024-02-21T07:17:07;26.73;;;8.53;;
26080;SDS011;13991;51.174;4.438;2024-02-21T07:19:33;22.07;;;8.03;;
26080;SDS011;13991;51.174;4.438;2024-02-21T07:22:00;32.27;;;7.40;;
26080;SDS011;13991;51.174;4.438;2024-02-21T07:24:27;30.77;;;8.83;;
26080;SDS011;13991;51.174;4.438;2024-02-21T07:26:52;18.30;;;7.73;;
26080;SDS011;13991;51.174;4.438;2024-02-21T07:29:18;24.13;;;8.93;;
26080;SDS011;13991;51.174;4.438;2024-02-21T07:31:44;18.50;;;7.47;;
26080;SDS011;13991;51.174;4.438;2024-02-21T07:34:10;24.00;;;7.83;;
26080;SDS011;13991;51.174;4.438;2024-02-21T07:36:36;21.37;;;7.33;;
26080;SDS011;13991;51.174;4.438;2024-02-21T07:39:05;28.37;;;8.17;;
26080;SDS011;13991;51.174;4.438;2024-02-21T07:41:31;26.77;;;8.00;;
26080;SDS011;13991;51.174;4.438;2024-02-21T07:43:58;26.47;;;8.47;;
26080;SDS011;13991;51.174;4.438;2024-02-21T07:46:24;25.93;;;8.20;;
26080;SDS011;13991;51.174;4.438;2024-02-21T07:48:50;24.93;;;9.97;;
26080;SDS011;13991;51.174;4.438;2024-02-21T07:51:16;21.57;;;8.00;;
26080;SDS011;13991;51.174;4.438;2024-02-21T07:53:43;24.20;;;8.23;;
26080;SDS011;13991;51.174;4.438;2024-02-21T07:56:10;29.63;;;8.63;;
26080;SDS011;13991;51.174;4.438;2024-02-21T07:58:36;27.70;;;8.47;;
26080;SDS011;13991;51.174;4.438;2024-02-21T08:01:02;23.53;;;8.20;;
26080;SDS011;13991;51.174;4.438;2024-02-21T08:03:28;15.87;;;7.63;;
26080;SDS011;13991;51.174;4.438;2024-02-21T08:05:54;22.60;;;7.73;;
26080;SDS011;13991;51.174;4.438;2024-02-21T08:08:19;20.50;;;7.97;;
26080;SDS011;13991;51.174;4.438;2024-02-21T08:10:47;20.70;;;8.50;;
26080;SDS011;13991;51.174;4.438;2024-02-21T08:13:14;19.97;;;7.87;;
26080;SDS011;13991;51.174;4.438;2024-02-21T08:15:40;21.53;;;8.83;;
26080;SDS011;13991;51.174;4.438;2024-02-21T08:18:07;19.90;;;8.90;;
26080;SDS011;13991;51.174;4.438;2024-02-21T08:20:33;16.67;;;7.93;;
26080;SDS011;13991;51.174;4.438;2024-02-21T08:22:58;19.00;;;8.50;;
26080;SDS011;13991;51.174;4.438;2024-02-21T08:25:24;21.73;;;8.73;;
26080;SDS011;13991;51.174;4.438;2024-02-21T08:27:50;16.17;;;8.20;;
26080;SDS011;13991;51.174;4.438;2024-02-21T08:30:16;27.07;;;9.70;;
26080;SDS011;13991;51.174;4.438;2024-02-21T08:32:42;20.03;;;8.87;;
26080;SDS011;13991;51.174;4.438;2024-02-21T08:35:08;19.73;;;9.97;;
26080;SDS011;13991;51.174;4.438;2024-02-21T08:37:34;26.70;;;11.37;;
26080;SDS011;13991;51.174;4.438;2024-02-21T08:40:00;30.03;;;11.03;;
26080;SDS011;13991;51.174;4.438;2024-02-21T08:42:33;29.33;;;11.83;;
26080;SDS011;13991;51.174;4.438;2024-02-21T08:45:03;27.97;;;11.43;;
26080;SDS011;13991;51.174;4.438;2024-02-21T08:47:29;28.43;;;12.93;;
26080;SDS011;13991;51.174;4.438;2024-02-21T08:49:55;36.57;;;13.00;;
26080;SDS011;13991;51.174;4.438;2024-02-21T08:52:21;33.33;;;13.00;;
26080;SDS011;13991;51.174;4.438;2024-02-21T08:54:46;35.23;;;12.60;;
26080;SDS011;13991;51.174;4.438;2024-02-21T08:57:12;30.37;;;11.83;;
26080;SDS011;13991;51.174;4.438;2024-02-21T08:59:39;39.00;;;12.70;;
26080;SDS011;13991;51.174;4.438;2024-02-21T09:02:06;29.30;;;11.47;;
26080;SDS011;13991;51.174;4.438;2024-02-21T09:04:34;25.87;;;10.20;;
26080;SDS011;13991;51.174;4.438;2024-02-21T09:06:59;22.73;;;9.63;;
26080;SDS011;13991;51.174;4.438;2024-02-21T09:09:26;23.03;;;9.20;;
26080;SDS011;13991;51.174;4.438;2024-02-21T09:11:53;20.80;;;9.30;;
26080;SDS011;13991;51.174;4.438;2024-02-21T09:14:19;28.40;;;10.67;;
26080;SDS011;13991;51.174;4.438;2024-02-21T09:16:45;31.73;;;9.30;;
26080;SDS011;13991;51.174;4.438;2024-02-21T09:19:10;29.30;;;8.30;;
26080;SDS011;13991;51.174;4.438;2024-02-21T09:21:39;19.13;;;6.90;;
26080;SDS011;13991;51.174;4.438;2024-02-21T09:24:05;22.53;;;8.00;;
26080;SDS011;13991;51.174;4.438;2024-02-21T09:26:31;16.27;;;6.63;;
26080;SDS011;13991;51.174;4.438;2024-02-21T09:28:57;13.00;;;6.17;;
26080;SDS011;13991;51.174;4.438;2024-02-21T09:31:23;20.70;;;5.67;;
26080;SDS011;13991;51.174;4.438;2024-02-21T09:33:48;19.10;;;4.97;;
26080;SDS011;13991;51.174;4.438;2024-02-21T09:36:14;28.03;;;5.60;;
26080;SDS011;13991;51.174;4.438;2024-02-21T09:38:40;16.70;;;5.00;;
26080;SDS011;13991;51.174;4.438;2024-02-21T09:43:45;13.93;;;4.80;;
26080;SDS011;13991;51.174;4.438;2024-02-21T09:46:17;17.53;;;5.17;;
26080;SDS011;13991;51.174;4.438;2024-02-21T09:51:21;21.30;;;5.53;;
26080;SDS011;13991;51.174;4.438;2024-02-21T09:53:48;15.77;;;4.70;;
26080;SDS011;13991;51.174;4.438;2024-02-21T09:56:15;20.60;;;4.90;;
26080;SDS011;13991;51.174;4.438;2024-02-21T09:58:41;15.67;;;5.00;;
26080;SDS011;13991;51.174;4.438;2024-02-21T10:01:07;12.03;;;3.90;;
26080;SDS011;13991;51.174;4.438;2024-02-21T10:03:34;10.63;;;3.63;;
26080;SDS011;13991;51.174;4.438;2024-02-21T10:05:59;10.20;;;3.63;;
26080;SDS011;13991;51.174;4.438;2024-02-21T10:08:26;18.63;;;4.43;;
26080;SDS011;13991;51.174;4.438;2024-02-21T10:10:52;11.90;;;3.87;;
26080;SDS011;13991;51.174;4.438;2024-02-21T10:13:24;11.37;;;3.53;;
26080;SDS011;13991;51.174;4.438;2024-02-21T10:16:01;9.37;;;3.60;;
26080;SDS011;13991;51.174;4.438;2024-02-21T10:18:27;22.50;;;2.60;;
26080;SDS011;13991;51.174;4.438;2024-02-21T10:21:03;13.30;;;3.53;;
26080;SDS011;13991;51.174;4.438;2024-02-21T10:23:40;13.70;;;3.90;;
26080;SDS011;13991;51.174;4.438;2024-02-21T10:26:10;18.40;;;3.37;;
26080;SDS011;13991;51.174;4.438;2024-02-21T10:28:36;14.17;;;3.23;;
26080;SDS011;13991;51.174;4.438;2024-02-21T10:31:06;12.57;;;3.90;;
26080;SDS011;13991;51.174;4.438;2024-02-21T10:33:33;9.70;;;2.77;;
26080;SDS011;13991;51.174;4.438;2024-02-21T10:36:09;13.50;;;3.53;;
26080;SDS011;13991;51.174;4.438;2024-02-21T10:38:36;12.17;;;2.93;;
26080;SDS011;13991;51.174;4.438;2024-02-21T10:41:05;13.23;;;3.73;;
26080;SDS011;13991;51.174;4.438;2024-02-21T10:43:38;9.17;;;3.13;;
26080;SDS011;13991;51.174;4.438;2024-02-21T10:46:06;13.03;;;3.40;;
26080;SDS011;13991;51.174;4.438;2024-02-21T10:48:38;12.03;;;3.63;;
26080;SDS011;13991;51.174;4.438;2024-02-21T10:51:12;7.50;;;3.37;;
26080;SDS011;13991;51.174;4.438;2024-02-21T10:58:52;17.50;;;3.00;;
26080;SDS011;13991;51.174;4.438;2024-02-21T11:01:18;13.47;;;3.50;;
26080;SDS011;13991;51.174;4.438;2024-02-21T11:03:45;20.83;;;4.10;;
26080;SDS011;13991;51.174;4.438;2024-02-21T11:06:13;14.63;;;2.83;;
26080;SDS011;13991;51.174;4.438;2024-02-21T11:08:41;14.50;;;3.53;;
26080;SDS011;13991;51.174;4.438;2024-02-21T11:11:06;18.83;;;3.40;;
26080;SDS011;13991;51.174;4.438;2024-02-21T11:13:35;16.07;;;3.73;;
26080;SDS011;13991;51.174;4.438;2024-02-21T11:16:07;19.23;;;4.43;;
26080;SDS011;13991;51.174;4.438;2024-02-21T11:18:37;21.67;;;4.17;;
26080;SDS011;13991;51.174;4.438;2024-02-21T11:21:03;16.47;;;4.13;;
26080;SDS011;13991;51.174;4.438;2024-02-21T11:23:32;21.30;;;5.13;;
26080;SDS011;13991;51.174;4.438;2024-02-21T11:26:07;22.50;;;4.83;;
26080;SDS011;13991;51.174;4.438;2024-02-21T11:28:34;29.50;;;5.47;;
26080;SDS011;13991;51.174;4.438;2024-02-21T11:31:08;24.27;;;4.60;;
26080;SDS011;13991;51.174;4.438;2024-02-21T11:33:35;17.00;;;4.47;;
26080;SDS011;13991;51.174;4.438;2024-02-21T11:36:04;19.73;;;5.13;;
26080;SDS011;13991;51.174;4.438;2024-02-21T11:38:30;16.87;;;4.93;;
26080;SDS011;13991;51.174;4.438;2024-02-21T11:40:56;19.40;;;5.00;;
26080;SDS011;13991;51.174;4.438;2024-02-21T11:43:23;19.33;;;4.57;;
26080;SDS011;13991;51.174;4.438;2024-02-21T11:45:49;20.07;;;4.90;;
26080;SDS011;13991;51.174;4.438;2024-02-21T11:48:14;17.73;;;3.60;;
26080;SDS011;13991;51.174;4.438;2024-02-21T11:50:40;19.57;;;3.63;;
26080;SDS011;13991;51.174;4.438;2024-02-21T11:53:06;14.97;;;4.00;;
26080;SDS011;13991;51.174;4.438;2024-02-21T11:55:34;30.40;;;4.60;;
26080;SDS011;13991;51.174;4.438;2024-02-21T11:57:59;17.50;;;4.07;;
26080;SDS011;13991;51.174;4.438;2024-02-21T12:00:25;16.37;;;4.43;;
26080;SDS011;13991;51.174;4.438;2024-02-21T12:02:51;14.67;;;4.33;;
26080;SDS011;13991;51.174;4.438;2024-02-21T12:05:18;15.30;;;4.20;;
26080;SDS011;13991;51.174;4.438;2024-02-21T12:07:45;17.70;;;4.47;;
26080;SDS011;13991;51.174;4.438;2024-02-21T12:10:11;16.67;;;4.93;;
26080;SDS011;13991;51.174;4.438;2024-02-21T12:12:37;18.47;;;5.07;;
26080;SDS011;13991;51.174;4.438;2024-02-21T12:15:04;20.43;;;5.43;;
26080;SDS011;13991;51.174;4.438;2024-02-21T12:17:32;17.10;;;5.50;;
26080;SDS011;13991;51.174;4.438;2024-02-21T12:19:59;25.23;;;5.93;;
26080;SDS011;13991;51.174;4.438;2024-02-21T12:22:25;26.88;;;6.90;;
26080;SDS011;13991;51.174;4.438;2024-02-21T12:24:51;31.17;;;6.50;;
26080;SDS011;13991;51.174;4.438;2024-02-21T12:27:17;34.53;;;5.90;;
26080;SDS011;13991;51.174;4.438;2024-02-21T12:29:42;29.93;;;5.80;;
26080;SDS011;13991;51.174;4.438;2024-02-21T12:32:08;26.67;;;5.90;;
26080;SDS011;13991;51.174;4.438;2024-02-21T12:34:34;18.03;;;5.00;;
26080;SDS011;13991;51.174;4.438;2024-02-21T12:37:01;19.40;;;5.37;;
26080;SDS011;13991;51.174;4.438;2024-02-21T12:39:28;18.80;;;4.87;;
26080;SDS011;13991;51.174;4.438;2024-02-21T12:41:54;17.73;;;4.80;;
26080;SDS011;13991;51.174;4.438;2024-02-21T12:44:21;20.07;;;5.30;;
26080;SDS011;13991;51.174;4.438;2024-02-21T12:46:47;14.00;;;3.53;;
26080;SDS011;13991;51.174;4.438;2024-02-21T12:49:17;16.83;;;3.30;;
26080;SDS011;13991;51.174;4.438;2024-02-21T12:51:43;10.83;;;3.90;;
26080;SDS011;13991;51.174;4.438;2024-02-21T12:54:11;19.53;;;3.40;;
26080;SDS011;13991;51.174;4.438;2024-02-21T12:56:37;11.37;;;3.30;;
26080;SDS011;13991;51.174;4.438;2024-02-21T12:59:04;11.53;;;3.00;;
26080;SDS011;13991;51.174;4.438;2024-02-21T13:01:34;9.37;;;2.60;;
26080;SDS011;13991;51.174;4.438;2024-02-21T13:04:00;13.00;;;3.00;;
26080;SDS011;13991;51.174;4.438;2024-02-21T13:06:26;14.70;;;3.17;;
26080;SDS011;13991;51.174;4.438;2024-02-21T13:08:52;18.00;;;3.60;;
26080;SDS011;13991;51.174;4.438;2024-02-21T13:11:18;11.57;;;2.93;;
26080;SDS011;13991;51.174;4.438;2024-02-21T13:13:44;13.50;;;3.60;;
26080;SDS011;13991;51.174;4.438;2024-02-21T13:16:11;17.70;;;3.10;;
26080;SDS011;13991;51.174;4.438;2024-02-21T13:18:36;8.67;;;2.40;;
26080;SDS011;13991;51.174;4.438;2024-02-21T13:21:06;13.93;;;3.37;;
26080;SDS011;13991;51.174;4.438;2024-02-21T13:23:32;18.23;;;3.97;;
26080;SDS011;13991;51.174;4.438;2024-02-21T13:25:58;13.40;;;3.00;;
26080;SDS011;13991;51.174;4.438;2024-02-21T13:28:24;18.30;;;3.53;;
26080;SDS011;13991;51.174;4.438;2024-02-21T13:30:50;15.53;;;3.43;;
26080;SDS011;13991;51.174;4.438;2024-02-21T13:33:18;9.23;;;3.30;;
26080;SDS011;13991;51.174;4.438;2024-02-21T13:35:44;12.43;;;3.40;;
26080;SDS011;13991;51.174;4.438;2024-02-21T13:38:10;11.00;;;2.77;;
26080;SDS011;13991;51.174;4.438;2024-02-21T13:40:37;18.77;;;3.80;;
26080;SDS011;13991;51.174;4.438;2024-02-21T13:43:02;13.83;;;2.80;;
26080;SDS011;13991;51.174;4.438;2024-02-21T13:45:28;20.07;;;3.70;;
26080;SDS011;13991;51.174;4.438;2024-02-21T13:47:54;13.33;;;3.03;;
26080;SDS011;13991;51.174;4.438;2024-02-21T13:50:23;25.77;;;4.47;;
26080;SDS011;13991;51.174;4.438;2024-02-21T13:52:54;17.67;;;4.00;;
26080;SDS011;13991;51.174;4.438;2024-02-21T13:55:22;12.33;;;4.43;;
26080;SDS011;13991;51.174;4.438;2024-02-21T13:57:51;21.50;;;4.93;;
26080;SDS011;13991;51.174;4.438;2024-02-21T14:00:17;22.40;;;5.07;;
26080;SDS011;13991;51.174;4.438;2024-02-21T14:02:45;17.53;;;6.00;;
26080;SDS011;13991;51.174;4.438;2024-02-21T14:05:11;17.97;;;5.47;;
26080;SDS011;13991;51.174;4.438;2024-02-21T14:07:37;18.27;;;5.00;;
26080;SDS011;13991;51.174;4.438;2024-02-21T14:10:03;23.37;;;5.63;;
26080;SDS011;13991;51.174;4.438;2024-02-21T14:12:30;14.73;;;5.07;;
26080;SDS011;13991;51.174;4.438;2024-02-21T14:14:57;14.90;;;6.07;;
26080;SDS011;13991;51.174;4.438;2024-02-21T14:17:23;28.53;;;5.73;;
26080;SDS011;13991;51.174;4.438;2024-02-21T14:19:49;15.50;;;6.27;;
26080;SDS011;13991;51.174;4.438;2024-02-21T14:22:16;21.70;;;5.70;;
26080;SDS011;13991;51.174;4.438;2024-02-21T14:24:42;13.70;;;4.83;;
26080;SDS011;13991;51.174;4.438;2024-02-21T14:27:10;15.03;;;5.50;;
26080;SDS011;13991;51.174;4.438;2024-02-21T14:29:37;18.87;;;5.50;;
26080;SDS011;13991;51.174;4.438;2024-02-21T14:32:04;18.53;;;5.33;;
26080;SDS011;13991;51.174;4.438;2024-02-21T14:34:30;26.83;;;6.03;;
26080;SDS011;13991;51.174;4.438;2024-02-21T14:36:56;17.67;;;6.30;;
26080;SDS011;13991;51.174;4.438;2024-02-21T14:39:24;15.90;;;6.00;;
26080;SDS011;13991;51.174;4.438;2024-02-21T14:41:50;17.07;;;5.50;;
26080;SDS011;13991;51.174;4.438;2024-02-21T14:44:15;17.40;;;5.63;;